sensor_id;sensor_type;location;lat;lon;timestamp;P1;durP1;ratioP1;P2;durP2;ratioP2
16832;SDS011;8533;48.426;10.868;2023-05-18T00:01:32;9.77;;;5.00;;
16832;SDS011;8533;48.426;10.868;2023-05-18T00:03:58;8.33;;;4.87;;
16832;SDS011;8533;48.426;10.868;2023-05-18T00:06:23;8.80;;;4.83;;
16832;SDS011;8533;48.426;10.868;2023-05-18T00:08:49;8.70;;;4.87;;
16832;SDS011;8533;48.426;10.868;2023-05-18T00:11:15;11.57;;;4.93;;
16832;SDS011;8533;48.426;10.868;2023-05-18T00:13:40;9.50;;;4.83;;
16832;SDS011;8533;48.426;10.868;2023-05-18T00:16:05;8.83;;;4.70;;
16832;SDS011;8533;48.426;10.868;2023-05-18T00:18:31;11.40;;;4.67;;
16832;SDS011;8533;48.426;10.868;2023-05-18T00:20:58;8.67;;;4.30;;
16832;SDS011;8533;48.426;10.868;2023-05-18T00:23:33;8.57;;;4.13;;
16832;SDS011;8533;48.426;10.868;2023-05-18T00:25:59;8.40;;;4.03;;
16832;SDS011;8533;48.426;10.868;2023-05-18T00:28:25;8.03;;;4.70;;
16832;SDS011;8533;48.426;10.868;2023-05-18T00:30:51;8.20;;;3.70;;
16832;SDS011;8533;48.426;10.868;2023-05-18T00:33:17;10.83;;;3.80;;
16832;SDS011;8533;48.426;10.868;2023-05-18T00:35:42;9.10;;;4.13;;
16832;SDS011;8533;48.426;10.868;2023-05-18T00:38:08;6.50;;;4.30;;
16832;SDS011;8533;48.426;10.868;2023-05-18T00:40:33;6.70;;;4.30;;
16832;SDS011;8533;48.426;10.868;2023-05-18T00:42:58;9.60;;;4.10;;
16832;SDS011;8533;48.426;10.868;2023-05-18T00:45:25;6.20;;;3.90;;
16832;SDS011;8533;48.426;10.868;2023-05-18T00:47:50;8.33;;;4.43;;
16832;SDS011;8533;48.426;10.868;2023-05-18T00:50:16;8.23;;;4.13;;
16832;SDS011;8533;48.426;10.868;2023-05-18T00:52:42;7.87;;;4.13;;
16832;SDS011;8533;48.426;10.868;2023-05-18T00:55:07;9.60;;;4.20;;
16832;SDS011;8533;48.426;10.868;2023-05-18T00:57:36;9.50;;;3.80;;
16832;SDS011;8533;48.426;10.868;2023-05-18T01:00:02;8.63;;;4.20;;
16832;SDS011;8533;48.426;10.868;2023-05-18T01:02:30;7.03;;;3.93;;
16832;SDS011;8533;48.426;10.868;2023-05-18T01:04:55;6.63;;;4.47;;
16832;SDS011;8533;48.426;10.868;2023-05-18T01:07:20;6.23;;;4.03;;
16832;SDS011;8533;48.426;10.868;2023-05-18T01:09:50;9.80;;;4.47;;
16832;SDS011;8533;48.426;10.868;2023-05-18T01:12:22;8.80;;;3.90;;
16832;SDS011;8533;48.426;10.868;2023-05-18T01:14:58;7.13;;;4.13;;
16832;SDS011;8533;48.426;10.868;2023-05-18T01:18:49;4.97;;;3.57;;
16832;SDS011;8533;48.426;10.868;2023-05-18T01:21:10;9.87;;;4.13;;
16832;SDS011;8533;48.426;10.868;2023-05-18T01:23:59;7.00;;;3.90;;
16832;SDS011;8533;48.426;10.868;2023-05-18T01:26:33;9.70;;;3.90;;
16832;SDS011;8533;48.426;10.868;2023-05-18T01:29:03;6.70;;;4.10;;
16832;SDS011;8533;48.426;10.868;2023-05-18T01:31:30;7.33;;;4.00;;
16832;SDS011;8533;48.426;10.868;2023-05-18T01:33:56;13.90;;;4.10;;
16832;SDS011;8533;48.426;10.868;2023-05-18T01:36:22;9.00;;;4.37;;
16832;SDS011;8533;48.426;10.868;2023-05-18T01:38:47;6.93;;;3.40;;
16832;SDS011;8533;48.426;10.868;2023-05-18T01:41:20;6.27;;;3.53;;
16832;SDS011;8533;48.426;10.868;2023-05-18T01:43:49;6.30;;;3.57;;
16832;SDS011;8533;48.426;10.868;2023-05-18T01:46:25;6.63;;;3.93;;
16832;SDS011;8533;48.426;10.868;2023-05-18T01:48:53;7.40;;;3.93;;
16832;SDS011;8533;48.426;10.868;2023-05-18T01:51:23;8.17;;;3.83;;
16832;SDS011;8533;48.426;10.868;2023-05-18T01:53:58;11.23;;;3.77;;
16832;SDS011;8533;48.426;10.868;2023-05-18T01:56:27;5.13;;;3.40;;
16832;SDS011;8533;48.426;10.868;2023-05-18T01:58:54;9.00;;;3.97;;
16832;SDS011;8533;48.426;10.868;2023-05-18T02:01:21;9.97;;;4.20;;
16832;SDS011;8533;48.426;10.868;2023-05-18T02:03:47;11.13;;;4.00;;
16832;SDS011;8533;48.426;10.868;2023-05-18T02:06:14;12.17;;;4.30;;
16832;SDS011;8533;48.426;10.868;2023-05-18T02:08:39;5.80;;;3.57;;
16832;SDS011;8533;48.426;10.868;2023-05-18T02:11:04;5.93;;;4.07;;
16832;SDS011;8533;48.426;10.868;2023-05-18T02:13:30;5.87;;;3.67;;
16832;SDS011;8533;48.426;10.868;2023-05-18T02:15:55;8.57;;;3.53;;
16832;SDS011;8533;48.426;10.868;2023-05-18T02:18:20;5.70;;;4.03;;
16832;SDS011;8533;48.426;10.868;2023-05-18T02:20:46;6.70;;;3.47;;
16832;SDS011;8533;48.426;10.868;2023-05-18T02:23:13;5.13;;;3.40;;
16832;SDS011;8533;48.426;10.868;2023-05-18T02:25:38;10.40;;;3.90;;
16832;SDS011;8533;48.426;10.868;2023-05-18T02:28:04;6.80;;;3.27;;
16832;SDS011;8533;48.426;10.868;2023-05-18T02:30:29;5.57;;;3.57;;
16832;SDS011;8533;48.426;10.868;2023-05-18T02:32:57;5.50;;;3.27;;
16832;SDS011;8533;48.426;10.868;2023-05-18T02:35:22;6.90;;;3.67;;
16832;SDS011;8533;48.426;10.868;2023-05-18T02:37:47;8.33;;;3.70;;
16832;SDS011;8533;48.426;10.868;2023-05-18T02:40:13;5.00;;;3.37;;
16832;SDS011;8533;48.426;10.868;2023-05-18T02:42:40;11.13;;;3.50;;
16832;SDS011;8533;48.426;10.868;2023-05-18T02:45:06;6.40;;;3.73;;
16832;SDS011;8533;48.426;10.868;2023-05-18T02:47:32;7.43;;;3.73;;
16832;SDS011;8533;48.426;10.868;2023-05-18T02:49:58;9.40;;;4.07;;
16832;SDS011;8533;48.426;10.868;2023-05-18T02:52:23;8.87;;;3.67;;
16832;SDS011;8533;48.426;10.868;2023-05-18T02:54:49;8.13;;;3.20;;
16832;SDS011;8533;48.426;10.868;2023-05-18T02:57:15;8.93;;;4.20;;
16832;SDS011;8533;48.426;10.868;2023-05-18T02:59:40;5.97;;;3.97;;
16832;SDS011;8533;48.426;10.868;2023-05-18T03:02:06;7.13;;;4.00;;
16832;SDS011;8533;48.426;10.868;2023-05-18T03:04:31;6.03;;;4.17;;
16832;SDS011;8533;48.426;10.868;2023-05-18T03:06:56;5.87;;;3.77;;
16832;SDS011;8533;48.426;10.868;2023-05-18T03:09:22;7.43;;;3.70;;
16832;SDS011;8533;48.426;10.868;2023-05-18T03:11:47;7.03;;;4.00;;
16832;SDS011;8533;48.426;10.868;2023-05-18T03:14:13;10.13;;;3.87;;
16832;SDS011;8533;48.426;10.868;2023-05-18T03:16:38;9.33;;;3.73;;
16832;SDS011;8533;48.426;10.868;2023-05-18T03:19:04;4.93;;;3.50;;
16832;SDS011;8533;48.426;10.868;2023-05-18T03:21:29;11.10;;;4.70;;
16832;SDS011;8533;48.426;10.868;2023-05-18T03:23:58;6.40;;;3.77;;
16832;SDS011;8533;48.426;10.868;2023-05-18T03:26:23;10.00;;;4.10;;
16832;SDS011;8533;48.426;10.868;2023-05-18T03:28:50;8.50;;;4.23;;
16832;SDS011;8533;48.426;10.868;2023-05-18T03:31:16;8.27;;;3.70;;
16832;SDS011;8533;48.426;10.868;2023-05-18T03:33:41;7.67;;;4.00;;
16832;SDS011;8533;48.426;10.868;2023-05-18T03:36:06;9.37;;;4.13;;
16832;SDS011;8533;48.426;10.868;2023-05-18T03:38:32;5.67;;;3.93;;
16832;SDS011;8533;48.426;10.868;2023-05-18T03:40:57;5.60;;;3.97;;
16832;SDS011;8533;48.426;10.868;2023-05-18T03:43:23;6.73;;;3.93;;
16832;SDS011;8533;48.426;10.868;2023-05-18T03:45:49;7.80;;;4.10;;
16832;SDS011;8533;48.426;10.868;2023-05-18T03:48:15;10.17;;;4.20;;
16832;SDS011;8533;48.426;10.868;2023-05-18T03:50:41;5.77;;;4.00;;
16832;SDS011;8533;48.426;10.868;2023-05-18T03:53:06;11.00;;;4.10;;
16832;SDS011;8533;48.426;10.868;2023-05-18T03:55:31;10.70;;;4.57;;
16832;SDS011;8533;48.426;10.868;2023-05-18T03:57:57;6.83;;;3.70;;
16832;SDS011;8533;48.426;10.868;2023-05-18T04:00:23;7.40;;;3.90;;
16832;SDS011;8533;48.426;10.868;2023-05-18T04:02:48;6.20;;;4.00;;
16832;SDS011;8533;48.426;10.868;2023-05-18T04:05:15;7.27;;;4.10;;
16832;SDS011;8533;48.426;10.868;2023-05-18T04:07:40;6.67;;;4.33;;
16832;SDS011;8533;48.426;10.868;2023-05-18T04:10:11;6.53;;;3.90;;
16832;SDS011;8533;48.426;10.868;2023-05-18T04:12:37;9.47;;;3.60;;
16832;SDS011;8533;48.426;10.868;2023-05-18T04:15:03;10.30;;;4.07;;
16832;SDS011;8533;48.426;10.868;2023-05-18T04:17:29;10.77;;;4.50;;
16832;SDS011;8533;48.426;10.868;2023-05-18T04:19:54;9.07;;;4.33;;
16832;SDS011;8533;48.426;10.868;2023-05-18T04:22:20;12.97;;;4.80;;
16832;SDS011;8533;48.426;10.868;2023-05-18T04:24:46;12.67;;;4.87;;
16832;SDS011;8533;48.426;10.868;2023-05-18T04:27:12;9.03;;;4.00;;
16832;SDS011;8533;48.426;10.868;2023-05-18T04:29:38;7.80;;;4.10;;
16832;SDS011;8533;48.426;10.868;2023-05-18T04:32:07;6.90;;;3.90;;
16832;SDS011;8533;48.426;10.868;2023-05-18T04:34:34;11.77;;;4.20;;
16832;SDS011;8533;48.426;10.868;2023-05-18T04:37:01;8.03;;;4.17;;
16832;SDS011;8533;48.426;10.868;2023-05-18T04:39:29;9.37;;;4.20;;
16832;SDS011;8533;48.426;10.868;2023-05-18T04:41:54;7.00;;;4.20;;
16832;SDS011;8533;48.426;10.868;2023-05-18T04:44:23;8.63;;;4.13;;
16832;SDS011;8533;48.426;10.868;2023-05-18T04:46:51;6.23;;;3.57;;
16832;SDS011;8533;48.426;10.868;2023-05-18T04:49:17;7.13;;;4.20;;
16832;SDS011;8533;48.426;10.868;2023-05-18T04:51:46;7.70;;;4.37;;
16832;SDS011;8533;48.426;10.868;2023-05-18T04:54:26;6.23;;;4.10;;
16832;SDS011;8533;48.426;10.868;2023-05-18T04:56:56;6.77;;;4.10;;
16832;SDS011;8533;48.426;10.868;2023-05-18T04:59:23;7.57;;;4.50;;
16832;SDS011;8533;48.426;10.868;2023-05-18T05:01:50;9.80;;;3.87;;
16832;SDS011;8533;48.426;10.868;2023-05-18T05:04:17;7.00;;;4.17;;
16832;SDS011;8533;48.426;10.868;2023-05-18T05:06:43;10.77;;;4.57;;
16832;SDS011;8533;48.426;10.868;2023-05-18T05:09:08;7.57;;;3.87;;
16832;SDS011;8533;48.426;10.868;2023-05-18T05:11:33;9.83;;;3.77;;
16832;SDS011;8533;48.426;10.868;2023-05-18T05:14:00;8.50;;;4.30;;
16832;SDS011;8533;48.426;10.868;2023-05-18T05:16:26;10.23;;;4.30;;
16832;SDS011;8533;48.426;10.868;2023-05-18T05:18:51;7.90;;;4.10;;
16832;SDS011;8533;48.426;10.868;2023-05-18T05:21:17;6.30;;;4.20;;
16832;SDS011;8533;48.426;10.868;2023-05-18T05:23:42;6.87;;;3.90;;
16832;SDS011;8533;48.426;10.868;2023-05-18T05:26:09;6.20;;;4.13;;
16832;SDS011;8533;48.426;10.868;2023-05-18T05:28:35;11.70;;;4.00;;
16832;SDS011;8533;48.426;10.868;2023-05-18T05:31:00;7.83;;;4.43;;
16832;SDS011;8533;48.426;10.868;2023-05-18T05:33:25;5.30;;;4.20;;
16832;SDS011;8533;48.426;10.868;2023-05-18T05:35:51;5.93;;;3.90;;
16832;SDS011;8533;48.426;10.868;2023-05-18T05:38:16;9.77;;;4.30;;
16832;SDS011;8533;48.426;10.868;2023-05-18T05:40:41;7.90;;;4.37;;
16832;SDS011;8533;48.426;10.868;2023-05-18T05:43:06;7.93;;;3.87;;
16832;SDS011;8533;48.426;10.868;2023-05-18T05:45:32;15.67;;;4.47;;
16832;SDS011;8533;48.426;10.868;2023-05-18T05:47:57;6.03;;;4.17;;
16832;SDS011;8533;48.426;10.868;2023-05-18T05:50:22;9.73;;;4.43;;
16832;SDS011;8533;48.426;10.868;2023-05-18T05:52:48;6.60;;;4.40;;
16832;SDS011;8533;48.426;10.868;2023-05-18T05:55:13;7.97;;;4.00;;
16832;SDS011;8533;48.426;10.868;2023-05-18T05:57:38;5.70;;;4.20;;
16832;SDS011;8533;48.426;10.868;2023-05-18T06:00:07;8.83;;;4.23;;
16832;SDS011;8533;48.426;10.868;2023-05-18T06:02:36;6.37;;;3.83;;
16832;SDS011;8533;48.426;10.868;2023-05-18T06:05:03;7.00;;;4.33;;
16832;SDS011;8533;48.426;10.868;2023-05-18T06:07:28;6.50;;;4.00;;
16832;SDS011;8533;48.426;10.868;2023-05-18T06:09:54;11.33;;;4.50;;
16832;SDS011;8533;48.426;10.868;2023-05-18T06:12:20;7.43;;;4.30;;
16832;SDS011;8533;48.426;10.868;2023-05-18T06:14:45;10.07;;;4.60;;
16832;SDS011;8533;48.426;10.868;2023-05-18T06:17:10;8.67;;;3.77;;
16832;SDS011;8533;48.426;10.868;2023-05-18T06:19:36;7.57;;;3.70;;
16832;SDS011;8533;48.426;10.868;2023-05-18T06:22:01;10.20;;;3.57;;
16832;SDS011;8533;48.426;10.868;2023-05-18T06:24:26;5.67;;;3.83;;
16832;SDS011;8533;48.426;10.868;2023-05-18T06:26:52;5.87;;;3.97;;
16832;SDS011;8533;48.426;10.868;2023-05-18T06:29:17;5.47;;;3.90;;
16832;SDS011;8533;48.426;10.868;2023-05-18T06:31:42;6.67;;;4.23;;
16832;SDS011;8533;48.426;10.868;2023-05-18T06:34:11;5.73;;;4.23;;
16832;SDS011;8533;48.426;10.868;2023-05-18T06:36:36;6.80;;;4.07;;
16832;SDS011;8533;48.426;10.868;2023-05-18T06:39:02;8.17;;;4.03;;
16832;SDS011;8533;48.426;10.868;2023-05-18T06:41:29;8.57;;;4.23;;
16832;SDS011;8533;48.426;10.868;2023-05-18T06:43:54;7.37;;;4.40;;
16832;SDS011;8533;48.426;10.868;2023-05-18T06:46:21;8.87;;;3.97;;
16832;SDS011;8533;48.426;10.868;2023-05-18T06:48:47;5.87;;;3.90;;
16832;SDS011;8533;48.426;10.868;2023-05-18T06:51:12;11.30;;;4.60;;
16832;SDS011;8533;48.426;10.868;2023-05-18T06:53:40;7.13;;;4.30;;
16832;SDS011;8533;48.426;10.868;2023-05-18T06:56:05;10.83;;;4.50;;
16832;SDS011;8533;48.426;10.868;2023-05-18T06:58:31;7.50;;;4.27;;
16832;SDS011;8533;48.426;10.868;2023-05-18T07:00:56;7.83;;;4.50;;
16832;SDS011;8533;48.426;10.868;2023-05-18T07:03:21;7.97;;;4.30;;
16832;SDS011;8533;48.426;10.868;2023-05-18T07:05:47;7.97;;;3.83;;
16832;SDS011;8533;48.426;10.868;2023-05-18T07:08:12;7.67;;;4.23;;
16832;SDS011;8533;48.426;10.868;2023-05-18T07:10:37;9.97;;;4.00;;
16832;SDS011;8533;48.426;10.868;2023-05-18T07:13:03;7.77;;;4.63;;
16832;SDS011;8533;48.426;10.868;2023-05-18T07:15:28;6.70;;;4.30;;
16832;SDS011;8533;48.426;10.868;2023-05-18T07:17:53;5.47;;;3.80;;
16832;SDS011;8533;48.426;10.868;2023-05-18T07:20:18;9.93;;;4.27;;
16832;SDS011;8533;48.426;10.868;2023-05-18T07:22:44;12.63;;;4.83;;
16832;SDS011;8533;48.426;10.868;2023-05-18T07:25:09;11.40;;;4.47;;
16832;SDS011;8533;48.426;10.868;2023-05-18T07:27:34;7.93;;;4.30;;
16832;SDS011;8533;48.426;10.868;2023-05-18T07:30:00;7.27;;;4.17;;
16832;SDS011;8533;48.426;10.868;2023-05-18T07:32:25;8.37;;;4.47;;
16832;SDS011;8533;48.426;10.868;2023-05-18T07:34:50;7.93;;;4.07;;
16832;SDS011;8533;48.426;10.868;2023-05-18T07:37:16;10.90;;;4.23;;
16832;SDS011;8533;48.426;10.868;2023-05-18T07:39:41;5.37;;;3.80;;
16832;SDS011;8533;48.426;10.868;2023-05-18T07:42:06;8.60;;;3.70;;
16832;SDS011;8533;48.426;10.868;2023-05-18T07:44:32;8.13;;;4.13;;
16832;SDS011;8533;48.426;10.868;2023-05-18T07:46:57;6.30;;;3.33;;
16832;SDS011;8533;48.426;10.868;2023-05-18T07:49:23;4.87;;;3.90;;
16832;SDS011;8533;48.426;10.868;2023-05-18T07:51:49;6.80;;;3.67;;
16832;SDS011;8533;48.426;10.868;2023-05-18T07:54:15;6.00;;;4.00;;
16832;SDS011;8533;48.426;10.868;2023-05-18T07:56:40;8.10;;;3.90;;
16832;SDS011;8533;48.426;10.868;2023-05-18T07:59:06;7.70;;;4.00;;
16832;SDS011;8533;48.426;10.868;2023-05-18T08:01:32;6.20;;;3.70;;
16832;SDS011;8533;48.426;10.868;2023-05-18T08:03:57;9.13;;;3.70;;
16832;SDS011;8533;48.426;10.868;2023-05-18T08:06:22;8.40;;;3.63;;
16832;SDS011;8533;48.426;10.868;2023-05-18T08:08:48;4.23;;;3.40;;
16832;SDS011;8533;48.426;10.868;2023-05-18T08:11:13;8.13;;;3.67;;
16832;SDS011;8533;48.426;10.868;2023-05-18T08:13:38;6.00;;;3.07;;
16832;SDS011;8533;48.426;10.868;2023-05-18T08:16:04;5.70;;;3.30;;
16832;SDS011;8533;48.426;10.868;2023-05-18T08:18:30;6.13;;;3.13;;
16832;SDS011;8533;48.426;10.868;2023-05-18T08:20:55;6.47;;;3.40;;
16832;SDS011;8533;48.426;10.868;2023-05-18T08:23:20;11.17;;;3.10;;
16832;SDS011;8533;48.426;10.868;2023-05-18T08:25:47;6.73;;;3.47;;
16832;SDS011;8533;48.426;10.868;2023-05-18T08:28:12;8.07;;;3.30;;
16832;SDS011;8533;48.426;10.868;2023-05-18T08:30:37;5.80;;;2.73;;
16832;SDS011;8533;48.426;10.868;2023-05-18T08:33:03;7.53;;;2.97;;
16832;SDS011;8533;48.426;10.868;2023-05-18T08:35:28;3.57;;;2.50;;
16832;SDS011;8533;48.426;10.868;2023-05-18T08:37:53;5.70;;;2.47;;
16832;SDS011;8533;48.426;10.868;2023-05-18T08:40:19;6.77;;;2.93;;
16832;SDS011;8533;48.426;10.868;2023-05-18T08:42:56;9.93;;;2.90;;
16832;SDS011;8533;48.426;10.868;2023-05-18T08:46:15;6.40;;;3.03;;
16832;SDS011;8533;48.426;10.868;2023-05-18T08:48:18;5.53;;;3.03;;
16832;SDS011;8533;48.426;10.868;2023-05-18T08:50:46;8.10;;;2.67;;
16832;SDS011;8533;48.426;10.868;2023-05-18T08:53:15;6.03;;;2.77;;
16832;SDS011;8533;48.426;10.868;2023-05-18T08:55:42;7.90;;;2.73;;
16832;SDS011;8533;48.426;10.868;2023-05-18T08:58:10;5.43;;;2.70;;
16832;SDS011;8533;48.426;10.868;2023-05-18T09:00:39;3.93;;;2.40;;
16832;SDS011;8533;48.426;10.868;2023-05-18T09:03:04;7.57;;;2.57;;
16832;SDS011;8533;48.426;10.868;2023-05-18T09:05:30;7.63;;;2.90;;
16832;SDS011;8533;48.426;10.868;2023-05-18T09:07:55;6.87;;;2.70;;
16832;SDS011;8533;48.426;10.868;2023-05-18T09:10:21;6.47;;;3.13;;
16832;SDS011;8533;48.426;10.868;2023-05-18T09:12:48;8.00;;;2.90;;
16832;SDS011;8533;48.426;10.868;2023-05-18T09:15:15;10.97;;;2.70;;
16832;SDS011;8533;48.426;10.868;2023-05-18T09:17:41;8.00;;;2.90;;
16832;SDS011;8533;48.426;10.868;2023-05-18T09:20:07;4.90;;;2.90;;
16832;SDS011;8533;48.426;10.868;2023-05-18T09:22:33;5.70;;;3.07;;
16832;SDS011;8533;48.426;10.868;2023-05-18T09:25:04;5.57;;;2.87;;
16832;SDS011;8533;48.426;10.868;2023-05-18T09:27:33;6.40;;;2.93;;
16832;SDS011;8533;48.426;10.868;2023-05-18T09:29:58;6.50;;;2.80;;
16832;SDS011;8533;48.426;10.868;2023-05-18T09:32:24;8.53;;;3.10;;
16832;SDS011;8533;48.426;10.868;2023-05-18T09:34:50;6.97;;;2.70;;
16832;SDS011;8533;48.426;10.868;2023-05-18T09:37:17;5.23;;;3.03;;
16832;SDS011;8533;48.426;10.868;2023-05-18T09:39:44;5.90;;;2.93;;
16832;SDS011;8533;48.426;10.868;2023-05-18T09:42:10;3.73;;;3.00;;
16832;SDS011;8533;48.426;10.868;2023-05-18T09:44:36;5.63;;;2.53;;
16832;SDS011;8533;48.426;10.868;2023-05-18T09:47:01;8.73;;;2.97;;
16832;SDS011;8533;48.426;10.868;2023-05-18T09:49:33;6.10;;;3.33;;
16832;SDS011;8533;48.426;10.868;2023-05-18T09:51:58;4.07;;;2.60;;
16832;SDS011;8533;48.426;10.868;2023-05-18T09:54:24;5.33;;;2.40;;
16832;SDS011;8533;48.426;10.868;2023-05-18T09:56:50;6.77;;;2.93;;
16832;SDS011;8533;48.426;10.868;2023-05-18T09:59:15;5.37;;;2.43;;
16832;SDS011;8533;48.426;10.868;2023-05-18T10:02:00;5.57;;;2.50;;
16832;SDS011;8533;48.426;10.868;2023-05-18T10:04:39;6.37;;;2.83;;
16832;SDS011;8533;48.426;10.868;2023-05-18T10:07:12;6.87;;;2.80;;
16832;SDS011;8533;48.426;10.868;2023-05-18T10:09:40;10.10;;;2.70;;
16832;SDS011;8533;48.426;10.868;2023-05-18T10:12:16;8.80;;;2.57;;
16832;SDS011;8533;48.426;10.868;2023-05-18T10:14:43;3.17;;;2.60;;
16832;SDS011;8533;48.426;10.868;2023-05-18T10:17:10;5.27;;;2.37;;
16832;SDS011;8533;48.426;10.868;2023-05-18T10:19:39;5.40;;;2.70;;
16832;SDS011;8533;48.426;10.868;2023-05-18T10:22:06;4.23;;;2.63;;
16832;SDS011;8533;48.426;10.868;2023-05-18T10:24:33;6.13;;;3.10;;
16832;SDS011;8533;48.426;10.868;2023-05-18T10:27:03;3.57;;;2.43;;
16832;SDS011;8533;48.426;10.868;2023-05-18T10:29:32;3.80;;;2.63;;
16832;SDS011;8533;48.426;10.868;2023-05-18T10:31:58;5.00;;;2.43;;
16832;SDS011;8533;48.426;10.868;2023-05-18T10:34:27;10.90;;;3.00;;
16832;SDS011;8533;48.426;10.868;2023-05-18T10:36:56;6.23;;;2.67;;
16832;SDS011;8533;48.426;10.868;2023-05-18T10:39:28;4.90;;;2.70;;
16832;SDS011;8533;48.426;10.868;2023-05-18T10:41:54;4.13;;;2.77;;
16832;SDS011;8533;48.426;10.868;2023-05-18T10:44:21;6.43;;;2.87;;
16832;SDS011;8533;48.426;10.868;2023-05-18T10:46:48;6.77;;;2.90;;
16832;SDS011;8533;48.426;10.868;2023-05-18T10:49:15;6.70;;;2.80;;
16832;SDS011;8533;48.426;10.868;2023-05-18T10:51:41;6.10;;;2.73;;
16832;SDS011;8533;48.426;10.868;2023-05-18T10:54:12;8.47;;;2.70;;
16832;SDS011;8533;48.426;10.868;2023-05-18T10:56:39;6.13;;;3.63;;
16832;SDS011;8533;48.426;10.868;2023-05-18T10:59:08;3.67;;;2.40;;
16832;SDS011;8533;48.426;10.868;2023-05-18T11:01:34;6.27;;;3.07;;
16832;SDS011;8533;48.426;10.868;2023-05-18T11:04:02;6.53;;;2.90;;
16832;SDS011;8533;48.426;10.868;2023-05-18T11:06:28;5.03;;;2.40;;
16832;SDS011;8533;48.426;10.868;2023-05-18T11:08:55;6.37;;;2.90;;
16832;SDS011;8533;48.426;10.868;2023-05-18T11:11:23;5.50;;;3.00;;
16832;SDS011;8533;48.426;10.868;2023-05-18T11:13:52;4.80;;;2.93;;
16832;SDS011;8533;48.426;10.868;2023-05-18T11:16:17;4.87;;;2.90;;
16832;SDS011;8533;48.426;10.868;2023-05-18T11:18:44;4.83;;;2.90;;
16832;SDS011;8533;48.426;10.868;2023-05-18T11:21:29;3.73;;;2.97;;
16832;SDS011;8533;48.426;10.868;2023-05-18T11:26:48;7.27;;;2.80;;
16832;SDS011;8533;48.426;10.868;2023-05-18T11:29:15;4.67;;;2.87;;
16832;SDS011;8533;48.426;10.868;2023-05-18T11:31:47;6.70;;;2.67;;
16832;SDS011;8533;48.426;10.868;2023-05-18T11:34:35;4.43;;;2.77;;
16832;SDS011;8533;48.426;10.868;2023-05-18T11:37:03;4.40;;;3.07;;
16832;SDS011;8533;48.426;10.868;2023-05-18T11:39:31;4.10;;;2.70;;
16832;SDS011;8533;48.426;10.868;2023-05-18T11:44:29;3.87;;;2.63;;
16832;SDS011;8533;48.426;10.868;2023-05-18T11:46:59;5.17;;;2.97;;
16832;SDS011;8533;48.426;10.868;2023-05-18T11:52:07;7.47;;;3.00;;
16832;SDS011;8533;48.426;10.868;2023-05-18T11:57:07;9.30;;;2.90;;
16832;SDS011;8533;48.426;10.868;2023-05-18T11:59:38;5.37;;;2.97;;
16832;SDS011;8533;48.426;10.868;2023-05-18T12:02:05;3.43;;;2.93;;
16832;SDS011;8533;48.426;10.868;2023-05-18T12:04:31;4.47;;;2.37;;
16832;SDS011;8533;48.426;10.868;2023-05-18T12:06:58;5.50;;;3.00;;
16832;SDS011;8533;48.426;10.868;2023-05-18T12:09:24;6.87;;;2.83;;
16832;SDS011;8533;48.426;10.868;2023-05-18T12:11:51;10.03;;;4.80;;
16832;SDS011;8533;48.426;10.868;2023-05-18T12:14:19;6.73;;;3.20;;
16832;SDS011;8533;48.426;10.868;2023-05-18T12:16:46;12.50;;;3.53;;
16832;SDS011;8533;48.426;10.868;2023-05-18T12:19:12;4.00;;;2.40;;
16832;SDS011;8533;48.426;10.868;2023-05-18T12:21:38;8.00;;;2.90;;
16832;SDS011;8533;48.426;10.868;2023-05-18T12:24:03;4.23;;;2.40;;
16832;SDS011;8533;48.426;10.868;2023-05-18T12:26:29;3.27;;;2.50;;
16832;SDS011;8533;48.426;10.868;2023-05-18T12:28:55;5.33;;;3.07;;
16832;SDS011;8533;48.426;10.868;2023-05-18T12:31:21;5.27;;;2.90;;
16832;SDS011;8533;48.426;10.868;2023-05-18T12:33:47;4.40;;;2.60;;
16832;SDS011;8533;48.426;10.868;2023-05-18T12:36:13;6.73;;;2.50;;
16832;SDS011;8533;48.426;10.868;2023-05-18T12:38:39;5.77;;;2.90;;
16832;SDS011;8533;48.426;10.868;2023-05-18T12:41:04;5.17;;;2.60;;
16832;SDS011;8533;48.426;10.868;2023-05-18T12:43:34;3.47;;;2.67;;
16832;SDS011;8533;48.426;10.868;2023-05-18T12:46:03;8.20;;;3.50;;
16832;SDS011;8533;48.426;10.868;2023-05-18T12:48:36;7.30;;;3.80;;
16832;SDS011;8533;48.426;10.868;2023-05-18T12:51:02;6.20;;;2.63;;
16832;SDS011;8533;48.426;10.868;2023-05-18T12:53:38;7.97;;;3.03;;
16832;SDS011;8533;48.426;10.868;2023-05-18T12:56:05;6.17;;;2.67;;
16832;SDS011;8533;48.426;10.868;2023-05-18T12:58:33;6.33;;;2.80;;
16832;SDS011;8533;48.426;10.868;2023-05-18T13:01:05;3.87;;;2.50;;
16832;SDS011;8533;48.426;10.868;2023-05-18T13:03:31;4.37;;;2.63;;
16832;SDS011;8533;48.426;10.868;2023-05-18T13:06:01;5.20;;;3.13;;
16832;SDS011;8533;48.426;10.868;2023-05-18T13:08:28;3.77;;;2.63;;
16832;SDS011;8533;48.426;10.868;2023-05-18T13:10:59;4.97;;;2.80;;
16832;SDS011;8533;48.426;10.868;2023-05-18T13:13:28;4.07;;;2.30;;
16832;SDS011;8533;48.426;10.868;2023-05-18T13:15:53;5.70;;;2.63;;
16832;SDS011;8533;48.426;10.868;2023-05-18T13:18:19;6.83;;;2.77;;
16832;SDS011;8533;48.426;10.868;2023-05-18T13:20:45;4.90;;;2.70;;
16832;SDS011;8533;48.426;10.868;2023-05-18T13:23:15;5.30;;;2.57;;
16832;SDS011;8533;48.426;10.868;2023-05-18T13:25:42;3.67;;;2.63;;
16832;SDS011;8533;48.426;10.868;2023-05-18T13:28:09;3.70;;;2.77;;
16832;SDS011;8533;48.426;10.868;2023-05-18T13:30:36;5.00;;;2.87;;
16832;SDS011;8533;48.426;10.868;2023-05-18T13:33:02;4.70;;;3.13;;
16832;SDS011;8533;48.426;10.868;2023-05-18T13:35:28;4.97;;;2.47;;
16832;SDS011;8533;48.426;10.868;2023-05-18T13:37:54;6.57;;;3.00;;
16832;SDS011;8533;48.426;10.868;2023-05-18T13:40:20;3.70;;;2.43;;
16832;SDS011;8533;48.426;10.868;2023-05-18T13:42:47;6.27;;;2.43;;
16832;SDS011;8533;48.426;10.868;2023-05-18T13:45:13;5.80;;;2.50;;
16832;SDS011;8533;48.426;10.868;2023-05-18T13:47:39;4.00;;;2.63;;
16832;SDS011;8533;48.426;10.868;2023-05-18T13:50:05;6.47;;;2.57;;
16832;SDS011;8533;48.426;10.868;2023-05-18T13:52:32;7.20;;;3.03;;
16832;SDS011;8533;48.426;10.868;2023-05-18T13:54:58;6.10;;;2.77;;
16832;SDS011;8533;48.426;10.868;2023-05-18T13:57:23;4.00;;;2.50;;
16832;SDS011;8533;48.426;10.868;2023-05-18T13:59:50;4.93;;;2.90;;
16832;SDS011;8533;48.426;10.868;2023-05-18T14:02:16;5.03;;;2.67;;
16832;SDS011;8533;48.426;10.868;2023-05-18T14:04:42;7.50;;;2.73;;
16832;SDS011;8533;48.426;10.868;2023-05-18T14:07:07;4.50;;;3.23;;
16832;SDS011;8533;48.426;10.868;2023-05-18T14:09:33;7.93;;;2.80;;
16832;SDS011;8533;48.426;10.868;2023-05-18T14:11:58;5.73;;;3.27;;
16832;SDS011;8533;48.426;10.868;2023-05-18T14:14:24;6.23;;;2.67;;
16832;SDS011;8533;48.426;10.868;2023-05-18T14:16:49;7.20;;;2.97;;
16832;SDS011;8533;48.426;10.868;2023-05-18T14:19:15;4.07;;;2.70;;
16832;SDS011;8533;48.426;10.868;2023-05-18T14:21:40;6.33;;;3.20;;
16832;SDS011;8533;48.426;10.868;2023-05-18T14:24:06;8.37;;;2.70;;
16832;SDS011;8533;48.426;10.868;2023-05-18T14:26:33;5.73;;;2.60;;
16832;SDS011;8533;48.426;10.868;2023-05-18T14:29:00;5.33;;;2.47;;
16832;SDS011;8533;48.426;10.868;2023-05-18T14:31:26;7.90;;;3.07;;
16832;SDS011;8533;48.426;10.868;2023-05-18T14:33:51;7.27;;;2.80;;
16832;SDS011;8533;48.426;10.868;2023-05-18T14:36:16;5.20;;;2.53;;
16832;SDS011;8533;48.426;10.868;2023-05-18T14:38:42;4.63;;;2.60;;
16832;SDS011;8533;48.426;10.868;2023-05-18T14:41:07;6.00;;;2.70;;
16832;SDS011;8533;48.426;10.868;2023-05-18T14:43:33;8.03;;;2.43;;
16832;SDS011;8533;48.426;10.868;2023-05-18T14:45:58;4.37;;;2.60;;
16832;SDS011;8533;48.426;10.868;2023-05-18T14:48:24;4.77;;;2.40;;
16832;SDS011;8533;48.426;10.868;2023-05-18T14:50:49;5.97;;;3.00;;
16832;SDS011;8533;48.426;10.868;2023-05-18T14:53:14;5.57;;;2.70;;
16832;SDS011;8533;48.426;10.868;2023-05-18T14:55:40;4.37;;;2.43;;